Aviation Digital Data Service (ADDS)

Output produced by METARs form (2312 UTC 23 March 2019)
found at http://www.aviationweather.gov/metar/data/
 
Forecast for: DTTA (TUNIS/CARTHAGE , TN)
Text: TAF DTTA 231700Z 2318/2418 36010KT 9999 FEW040
Forecast period: 1800 to 1900 UTC 23 March 2019
Forecast type: FROM: standard forecast or significant change
Winds: from the N (360 degrees) at 12 MPH (10 knots; 5.1 m/s)
Visibility: 6 or more miles 10+ km)
Ceiling: at least 12,000 feet AGL
Clouds: few clouds at 4000 feet AGL
Weather: no significant weather forecast for this period
Text: BECMG 2319/2321 20003KT
Forecast period: 1900 UTC 23 March 2019 to 1800 UTC 24 March 2019
Forecast type: BECOMING: Conditions expected to become as follows by 2100 UTC 23 March 2019
Winds: from the SSW (200 degrees) at 3 MPH (3 knots; 1.5 m/s)
Visibility: 6 or more miles 10+ km)
Ceiling: at least 12,000 feet AGL
Clouds: few clouds at 4000 feet AGL
Weather: no significant weather forecast for this period